Ko Samui, Thailand
Current Conditions -  °F | °C
As of 7:00 PM on Saturday 20 Dec 2014 (Local Time) from VTSM Reporting Station
Broken Clouds Broken Clouds  
Wind Chill: 82°   Ceiling: 30000
Heat Index: 87°   Visibility: 6mi
Dew Point: 72°   Wind: 8mph
Humidity: 70%   Direction: 20°NNE
Pressure: 29.85"   Gusts: NA
Location:  9.5°N, 100.01°E
Report Text: VTSM 201200Z 02007KT 9999 FEW020 BKN300 28/22 Q1011 A2987
Loading
Personal Weather Stations






























Interactive Weather Map New forecast layout! Learn more

10-Day Weather Forecast

Advertisements
Track Severe Weather on mobile